createdAt,value
2022-11-06T00:00:40.693Z,2.88
2022-11-06T00:03:08.073Z,3.08
2022-11-06T00:05:53.983Z,1.77
2022-11-06T00:08:34.623Z,3.50
2022-11-06T00:11:02.233Z,3.88
2022-11-06T00:13:29.738Z,2.97
2022-11-06T00:15:56.988Z,3.20
2022-11-06T00:18:26.175Z,4.18
2022-11-06T00:20:53.294Z,2.37
2022-11-06T00:23:20.465Z,2.78
2022-11-06T00:25:47.588Z,3.38
2022-11-06T00:28:15.011Z,3.53
2022-11-06T00:30:42.301Z,2.35
2022-11-06T00:33:10.621Z,2.90
2022-11-06T00:35:40.961Z,3.03
2022-11-06T00:38:08.071Z,3.13
2022-11-06T00:40:35.235Z,3.65
2022-11-06T00:43:02.421Z,3.97
2022-11-06T00:45:29.656Z,2.73
2022-11-06T00:47:56.976Z,3.38
2022-11-06T00:50:26.328Z,3.13
2022-11-06T00:52:53.599Z,3.15
2022-11-06T00:55:20.833Z,2.72
2022-11-06T00:57:48.368Z,2.65
2022-11-06T01:00:18.016Z,1.98
2022-11-06T01:02:45.660Z,4.10
2022-11-06T01:05:13.060Z,3.45
2022-11-06T01:07:40.953Z,3.38
2022-11-06T01:10:08.679Z,3.45
2022-11-06T01:12:36.057Z,2.75
2022-11-06T01:15:03.221Z,3.05
2022-11-06T01:17:30.532Z,3.83
2022-11-06T01:19:57.727Z,3.08
2022-11-06T01:22:25.060Z,2.45
2022-11-06T01:24:52.195Z,2.63
2022-11-06T01:27:26.412Z,4.32
2022-11-06T01:29:54.090Z,6.05
2022-11-06T01:32:21.339Z,2.08
2022-11-06T01:34:49.901Z,3.33
2022-11-06T01:37:17.059Z,3.33
2022-11-06T01:39:44.213Z,2.67
2022-11-06T01:42:12.511Z,2.83
2022-11-06T01:45:02.711Z,3.90
2022-11-06T01:47:30.122Z,3.37
2022-11-06T01:49:59.350Z,2.47
2022-11-06T01:52:27.651Z,2.75
2022-11-06T01:54:59.385Z,3.42
2022-11-06T01:57:26.514Z,3.28
2022-11-06T01:59:54.448Z,3.90
2022-11-06T02:02:21.974Z,3.43
2022-11-06T02:04:49.681Z,3.30
2022-11-06T02:07:17.959Z,3.40
2022-11-06T02:09:45.249Z,2.47
2022-11-06T02:12:23.933Z,3.33
2022-11-06T02:15:31.891Z,3.33
2022-11-06T02:17:59.538Z,2.97
2022-11-06T02:21:00.672Z,3.00
2022-11-06T02:23:43.021Z,3.67
2022-11-06T02:26:19.956Z,3.13
2022-11-06T02:29:07.973Z,2.85
2022-11-06T02:31:36.337Z,3.30
2022-11-06T02:34:12.198Z,2.38
2022-11-06T02:36:52.401Z,2.80
2022-11-06T02:39:20.618Z,2.83
2022-11-06T02:41:48.809Z,3.58
2022-11-06T02:44:18.527Z,3.05
2022-11-06T02:46:54.066Z,2.95
2022-11-06T02:49:37.526Z,3.45
2022-11-06T02:52:12.944Z,3.00
2022-11-06T02:54:45.975Z,3.35
2022-11-06T02:57:16.791Z,2.83
2022-11-06T03:00:01.223Z,3.53
2022-11-06T03:02:30.629Z,3.70
2022-11-06T03:05:13.457Z,3.60
2022-11-06T03:07:48.003Z,2.78
2022-11-06T03:10:15.389Z,3.63
2022-11-06T03:12:42.533Z,3.33
2022-11-06T03:15:34.746Z,3.95
2022-11-06T03:18:14.385Z,3.33
2022-11-06T03:20:54.065Z,3.05
2022-11-06T03:23:25.127Z,2.70
2022-11-06T03:25:57.717Z,3.30
2022-11-06T03:28:34.013Z,3.27
2022-11-06T03:31:05.188Z,2.88
2022-11-06T03:33:44.282Z,3.58
2022-11-06T03:36:14.268Z,2.33
2022-11-06T03:38:46.578Z,2.97
2022-11-06T03:41:19.958Z,3.33
2022-11-06T03:43:50.098Z,3.00
2022-11-06T03:46:20.805Z,3.53
2022-11-06T03:48:52.310Z,3.28
2022-11-06T03:51:43.654Z,2.30
2022-11-06T03:54:49.685Z,5.53
2022-11-06T03:57:20.546Z,2.00
2022-11-06T03:59:53.401Z,2.70
2022-11-06T04:02:23.110Z,2.67
2022-11-06T04:05:02.929Z,2.83
2022-11-06T04:07:36.322Z,2.53
2022-11-06T04:10:26.911Z,3.58
2022-11-06T04:13:15.099Z,3.92
2022-11-06T04:15:43.515Z,2.78
2022-11-06T04:18:15.101Z,2.53
2022-11-06T04:21:06.365Z,2.33
2022-11-06T04:24:15.225Z,2.97
2022-11-06T04:26:56.548Z,3.20
2022-11-06T04:29:48.326Z,2.83
2022-11-06T04:32:23.480Z,3.60
2022-11-06T04:35:05.382Z,2.40
2022-11-06T04:37:54.854Z,1.67
2022-11-06T04:40:26.088Z,3.42
2022-11-06T04:42:53.285Z,3.38
2022-11-06T04:45:36.351Z,4.47
2022-11-06T04:48:04.798Z,3.67
2022-11-06T04:50:38.213Z,3.40
2022-11-06T04:53:06.780Z,3.15
2022-11-06T04:55:48.501Z,3.38
2022-11-06T04:58:16.101Z,3.73
2022-11-06T05:00:47.143Z,2.35
2022-11-06T05:03:15.052Z,2.50
2022-11-06T05:05:42.251Z,2.60
2022-11-06T05:08:16.918Z,2.80
2022-11-06T05:10:44.277Z,3.45
2022-11-06T05:13:11.925Z,2.92
2022-11-06T05:15:39.163Z,3.47
2022-11-06T05:18:06.690Z,3.40
2022-11-06T05:20:33.925Z,4.32
2022-11-06T05:23:01.232Z,3.00
2022-11-06T05:25:34.160Z,3.90
2022-11-06T05:28:01.727Z,2.60
2022-11-06T05:30:29.365Z,2.70
2022-11-06T05:32:56.538Z,2.40
2022-11-06T05:35:23.685Z,2.30
2022-11-06T05:37:50.771Z,2.73
2022-11-06T05:40:18.056Z,3.08
2022-11-06T05:42:45.355Z,2.78
2022-11-06T05:45:12.601Z,2.00
2022-11-06T05:47:41.549Z,2.30
2022-11-06T05:50:09.708Z,2.17
2022-11-06T05:52:37.230Z,2.42
2022-11-06T05:55:06.021Z,2.78
2022-11-06T05:57:34.887Z,3.40
2022-11-06T06:00:02.060Z,3.30
2022-11-06T06:02:29.347Z,2.28
2022-11-06T06:04:56.616Z,2.88
2022-11-06T06:07:23.823Z,4.03
2022-11-06T06:09:51.066Z,2.20
2022-11-06T06:12:18.545Z,3.53
2022-11-06T06:14:50.269Z,2.20
2022-11-06T06:17:17.729Z,3.40
2022-11-06T06:19:44.857Z,2.90
2022-11-06T06:22:11.985Z,3.63
2022-11-06T06:24:39.236Z,3.10
2022-11-06T06:27:06.496Z,3.50
2022-11-06T06:29:33.656Z,3.33
2022-11-06T06:32:01.049Z,4.50
2022-11-06T06:34:28.188Z,4.38
2022-11-06T06:36:55.387Z,3.17
2022-11-06T06:39:22.771Z,3.25
2022-11-06T06:41:50.193Z,3.50
2022-11-06T06:44:17.862Z,3.08
2022-11-06T06:46:45.051Z,2.70
2022-11-06T06:49:12.282Z,3.20
2022-11-06T06:51:39.437Z,2.33
2022-11-06T06:54:06.678Z,3.13
2022-11-06T06:56:33.820Z,2.65
2022-11-06T06:59:00.972Z,2.27
2022-11-06T07:01:28.241Z,2.58
2022-11-06T07:03:59.885Z,3.22
2022-11-06T07:06:30.230Z,3.75
2022-11-06T07:08:57.576Z,3.05
2022-11-06T07:11:24.834Z,2.78
2022-11-06T07:13:52.057Z,2.30
2022-11-06T07:16:21.170Z,4.77
2022-11-06T07:18:48.411Z,5.22
2022-11-06T07:21:15.557Z,5.60
2022-11-06T07:23:43.785Z,4.90
2022-11-06T07:26:14.108Z,4.70
2022-11-06T07:28:41.256Z,4.10
2022-11-06T07:31:12.631Z,5.28
2022-11-06T07:33:41.003Z,3.83
2022-11-06T07:36:13.656Z,7.38
2022-11-06T07:38:42.025Z,6.40
2022-11-06T07:41:12.498Z,6.50
2022-11-06T07:43:40.212Z,5.75
2022-11-06T07:46:08.474Z,5.03
2022-11-06T07:48:35.753Z,4.47
2022-11-06T07:51:04.074Z,4.10
2022-11-06T07:53:31.315Z,4.22
2022-11-06T07:55:58.780Z,2.97
2022-11-06T07:58:25.959Z,4.60
2022-11-06T08:00:54.992Z,2.97
2022-11-06T08:03:24.476Z,5.55
2022-11-06T08:05:52.749Z,2.22
2022-11-06T08:08:19.971Z,3.63
2022-11-06T08:10:47.699Z,4.32
2022-11-06T08:13:16.550Z,3.53
2022-11-06T08:15:44.118Z,3.20
2022-11-06T08:18:12.068Z,5.22
2022-11-06T08:20:39.823Z,3.30
2022-11-06T08:23:08.334Z,2.28
2022-11-06T08:25:35.525Z,3.92
2022-11-06T08:28:03.728Z,3.42
2022-11-06T08:30:31.420Z,2.50
2022-11-06T08:33:02.764Z,2.22
2022-11-06T08:35:30.138Z,4.15
2022-11-06T08:37:57.289Z,3.13
2022-11-06T08:40:30.445Z,3.08
2022-11-06T08:43:04.234Z,2.73
2022-11-06T08:45:32.705Z,3.25
2022-11-06T08:48:03.930Z,3.35
2022-11-06T08:50:35.287Z,2.58
2022-11-06T08:53:04.201Z,3.08
2022-11-06T08:55:31.893Z,2.07
2022-11-06T08:57:59.019Z,3.30
2022-11-06T09:00:26.623Z,3.95
2022-11-06T09:03:02.104Z,3.13
2022-11-06T09:05:30.880Z,2.90
2022-11-06T09:07:58.729Z,3.42
2022-11-06T09:10:26.761Z,3.05
2022-11-06T09:12:54.013Z,2.63
2022-11-06T09:15:21.167Z,3.13
2022-11-06T09:17:50.089Z,2.72
2022-11-06T09:20:18.981Z,2.85
2022-11-06T09:22:46.650Z,3.17
2022-11-06T09:25:14.647Z,2.72
2022-11-06T09:27:47.670Z,2.35
2022-11-06T09:30:16.995Z,3.07
2022-11-06T09:32:48.593Z,4.13
2022-11-06T09:35:15.905Z,2.40
2022-11-06T09:37:43.292Z,2.85
2022-11-06T09:40:38.032Z,1.90
2022-11-06T09:43:50.358Z,2.53
2022-11-06T09:46:15.728Z,2.30
2022-11-06T09:48:45.173Z,4.07
2022-11-06T09:51:19.261Z,2.78
2022-11-06T09:53:54.213Z,1.70
2022-11-06T09:56:25.822Z,2.50
2022-11-06T09:58:53.393Z,2.40
2022-11-06T10:01:27.060Z,2.30
2022-11-06T10:03:54.577Z,2.33
2022-11-06T10:06:22.755Z,2.17
2022-11-06T10:08:51.827Z,2.37
2022-11-06T10:11:19.038Z,2.17
2022-11-06T10:13:48.916Z,2.80
2022-11-06T10:16:40.137Z,2.17
2022-11-06T10:19:17.185Z,2.05
2022-11-06T10:21:44.308Z,1.70
2022-11-06T10:24:26.274Z,2.90
2022-11-06T10:26:56.000Z,2.00
2022-11-06T10:29:32.020Z,1.80
2022-11-06T10:32:17.218Z,2.00
2022-11-06T10:34:52.155Z,1.63
2022-11-06T10:37:26.366Z,1.70
2022-11-06T10:39:55.572Z,1.25
2022-11-06T10:42:35.177Z,2.22
2022-11-06T10:45:17.776Z,2.42
2022-11-06T10:48:16.774Z,2.45
2022-11-06T10:50:53.313Z,1.77
2022-11-06T10:53:55.113Z,1.60
2022-11-06T10:56:28.228Z,2.08
2022-11-06T10:58:55.524Z,2.08
2022-11-06T11:01:23.234Z,2.22
2022-11-06T11:03:51.537Z,1.55
2022-11-06T11:06:18.905Z,1.58
2022-11-06T11:08:46.032Z,2.65
2022-11-06T11:11:15.950Z,1.50
2022-11-06T11:14:02.625Z,1.88
2022-11-06T11:16:37.256Z,2.42
2022-11-06T11:19:16.629Z,1.40
2022-11-06T11:21:53.347Z,1.73
2022-11-06T11:24:20.471Z,1.35
2022-11-06T11:26:50.758Z,2.78
2022-11-06T11:29:22.330Z,1.98
2022-11-06T11:31:54.210Z,2.50
2022-11-06T11:34:23.187Z,2.17
2022-11-06T11:36:56.473Z,2.20
2022-11-06T11:39:26.001Z,2.17
2022-11-06T11:41:54.412Z,2.28
2022-11-06T11:44:21.609Z,1.60
2022-11-06T11:46:51.375Z,2.40
2022-11-06T11:49:34.463Z,3.45
2022-11-06T11:52:04.681Z,2.27
2022-11-06T11:54:34.252Z,2.97
2022-11-06T11:57:06.593Z,2.47
2022-11-06T11:59:42.951Z,1.90
2022-11-06T12:02:29.408Z,2.22
2022-11-06T12:04:59.236Z,2.20
2022-11-06T12:07:34.304Z,1.27
2022-11-06T12:10:02.420Z,2.22
2022-11-06T12:12:33.810Z,3.63
2022-11-06T12:15:18.109Z,1.83
2022-11-06T12:17:47.453Z,2.00
2022-11-06T12:20:19.130Z,1.90
2022-11-06T12:22:47.083Z,2.00
2022-11-06T12:25:17.381Z,2.67
2022-11-06T12:27:47.851Z,3.38
2022-11-06T12:30:16.058Z,1.52
2022-11-06T12:33:06.030Z,3.70
2022-11-06T12:35:48.806Z,2.10
2022-11-06T12:38:16.724Z,2.05
2022-11-06T12:41:16.427Z,2.90
2022-11-06T12:43:48.747Z,2.20
2022-11-06T12:46:39.198Z,2.72
2022-11-06T12:49:23.489Z,1.88
2022-11-06T12:52:17.077Z,2.30
2022-11-06T12:55:15.745Z,2.30
2022-11-06T12:58:21.116Z,1.95
2022-11-06T13:01:07.565Z,1.92
2022-11-06T13:03:54.644Z,1.30
2022-11-06T13:06:21.761Z,1.73
2022-11-06T13:08:53.903Z,1.77
2022-11-06T13:11:55.362Z,1.90
2022-11-06T13:14:45.438Z,1.92
2022-11-06T13:17:20.967Z,1.55
2022-11-06T13:20:08.294Z,1.92
2022-11-06T13:22:41.736Z,2.80
2022-11-06T13:25:19.646Z,2.07
2022-11-06T13:27:49.713Z,1.80
2022-11-06T13:30:19.220Z,4.37
2022-11-06T13:32:59.289Z,2.00
2022-11-06T13:35:27.040Z,1.88
2022-11-06T13:37:56.139Z,2.33
2022-11-06T13:40:30.533Z,2.47
2022-11-06T13:43:08.344Z,2.60
2022-11-06T13:45:49.386Z,1.77
2022-11-06T13:48:29.993Z,2.47
2022-11-06T13:51:14.647Z,2.75
2022-11-06T13:53:41.854Z,2.75
2022-11-06T13:56:28.166Z,1.52
2022-11-06T13:59:34.309Z,2.47
2022-11-06T14:02:19.609Z,2.27
2022-11-06T14:04:53.576Z,1.95
2022-11-06T14:07:21.920Z,2.42
2022-11-06T14:09:49.548Z,2.05
2022-11-06T14:12:20.014Z,2.30
2022-11-06T14:14:47.538Z,2.35
2022-11-06T14:17:18.757Z,2.08
2022-11-06T14:19:50.450Z,1.98
2022-11-06T14:22:24.361Z,1.60
2022-11-06T14:24:52.481Z,2.22
2022-11-06T14:27:23.706Z,2.03
2022-11-06T14:29:59.534Z,1.40
2022-11-06T14:32:36.107Z,1.65
2022-11-06T14:35:31.784Z,1.45
2022-11-06T14:38:11.097Z,1.20
2022-11-06T14:40:39.293Z,1.80
2022-11-06T14:43:19.679Z,1.55
2022-11-06T14:45:55.742Z,1.70
2022-11-06T14:48:49.306Z,2.30
2022-11-06T14:51:17.069Z,3.00
2022-11-06T14:53:49.391Z,2.17
2022-11-06T14:56:28.865Z,2.33
2022-11-06T14:59:07.728Z,1.48
2022-11-06T15:01:37.200Z,1.45
2022-11-06T15:04:05.908Z,2.00
2022-11-06T15:06:33.039Z,2.10
2022-11-06T15:09:00.186Z,1.90
2022-11-06T15:11:30.513Z,1.48
2022-11-06T15:14:17.703Z,2.60
2022-11-06T15:16:50.637Z,1.85
2022-11-06T15:19:17.814Z,1.83
2022-11-06T15:22:06.882Z,1.10
2022-11-06T15:24:38.562Z,2.20
2022-11-06T15:27:11.422Z,1.77
2022-11-06T15:29:42.008Z,2.63
2022-11-06T15:32:12.238Z,2.83
2022-11-06T15:34:41.365Z,1.57
2022-11-06T15:37:13.218Z,1.42
2022-11-06T15:40:01.630Z,1.15
2022-11-06T15:42:29.982Z,1.52
2022-11-06T15:45:16.011Z,2.57
2022-11-06T15:47:55.045Z,2.38
2022-11-06T15:50:23.474Z,1.90
2022-11-06T15:52:50.871Z,1.83
2022-11-06T15:55:32.457Z,1.75
2022-11-06T15:58:10.119Z,1.48
2022-11-06T16:00:41.460Z,2.75
2022-11-06T16:03:15.723Z,1.13
2022-11-06T16:05:44.985Z,1.98
2022-11-06T16:08:17.415Z,2.23
2022-11-06T16:10:46.051Z,1.52
2022-11-06T16:13:17.731Z,4.78
2022-11-06T16:15:48.542Z,1.55
2022-11-06T16:18:33.277Z,2.03
2022-11-06T16:21:00.404Z,2.23
2022-11-06T16:23:38.611Z,1.70
2022-11-06T16:26:09.954Z,2.83
2022-11-06T16:28:37.839Z,1.90
2022-11-06T16:31:11.266Z,1.85
2022-11-06T16:33:38.462Z,2.47
2022-11-06T16:36:09.793Z,2.15
2022-11-06T16:38:47.225Z,1.98
2022-11-06T16:41:40.229Z,1.52
2022-11-06T16:44:31.002Z,1.73
2022-11-06T16:47:11.072Z,1.90
2022-11-06T16:49:39.376Z,2.22
2022-11-06T16:52:29.913Z,1.60
2022-11-06T16:54:59.343Z,2.63
2022-11-06T16:57:32.439Z,2.33
2022-11-06T16:59:59.650Z,2.40
2022-11-06T17:02:30.243Z,1.47
2022-11-06T17:05:11.907Z,2.95
2022-11-06T17:07:39.567Z,2.80
2022-11-06T17:10:25.137Z,2.05
2022-11-06T17:12:52.311Z,8.45
2022-11-06T17:15:19.651Z,2.38
2022-11-06T17:17:46.859Z,2.65
2022-11-06T17:20:16.013Z,3.07
2022-11-06T17:22:43.172Z,2.67
2022-11-06T17:25:10.256Z,2.80
2022-11-06T17:27:37.313Z,2.40
2022-11-06T17:30:04.728Z,2.40
2022-11-06T17:32:31.945Z,2.47
2022-11-06T17:34:59.097Z,4.05
2022-11-06T17:37:26.520Z,2.73
2022-11-06T17:39:53.757Z,24.03
2022-11-06T17:42:21.348Z,17.17
2022-11-06T17:44:48.563Z,5.07
2022-11-06T17:47:16.741Z,6.97
2022-11-06T17:49:43.977Z,17.60
2022-11-06T17:52:11.195Z,12.30
2022-11-06T17:54:39.597Z,26.93
2022-11-06T17:57:07.648Z,32.00
2022-11-06T17:59:35.169Z,24.27
2022-11-06T18:02:02.744Z,28.63
2022-11-06T18:04:30.607Z,30.80
2022-11-06T18:06:58.350Z,47.50
2022-11-06T18:09:25.608Z,36.85
2022-11-06T18:11:54.078Z,64.90
2022-11-06T18:14:22.047Z,64.32
2022-11-06T18:16:49.696Z,88.80
2022-11-06T18:19:17.940Z,92.40
2022-11-06T18:21:45.129Z,87.85
2022-11-06T18:24:13.277Z,123.50
2022-11-06T18:26:40.569Z,159.30
2022-11-06T18:29:08.231Z,163.23
2022-11-06T18:31:36.002Z,159.20
2022-11-06T18:34:03.205Z,196.05
2022-11-06T18:36:30.337Z,269.10
2022-11-06T18:38:57.921Z,299.27
2022-11-06T18:41:25.205Z,344.90
2022-11-06T18:43:58.911Z,630.13
2022-11-06T18:46:26.872Z,644.78
2022-11-06T18:48:56.463Z,902.90
2022-11-06T18:51:35.066Z,1065.95
2022-11-06T18:54:04.695Z,1120.38
2022-11-06T18:56:33.060Z,1129.60
2022-11-06T18:59:00.312Z,1143.82
2022-11-06T19:01:28.450Z,1148.80
